Time;durP1;ratioP1;P1;durP2;ratioP2;P2;SDS_P1;SDS_P2;PMS_P1;PMS_P2;Temp;Humidity;BMP_temperature;BMP_pressure;BME280_temperature;BME280_humidity;BME280_pressure;Samples;Min_cycle;Max_cycle;Signal;HPM_P1;HPM_P2
2021/10/04 00:00:36;;;;;;;;;;;;;;;5.16;63.74;101883.66;4874649;29;20341;-77
2021/10/04 00:03:01;;;;;;;;;;;;;;;5.16;63.33;101883.66;4872525;29;19927;-79
2021/10/04 00:05:27;;;;;;;;;;;;;;;5.18;63.16;101884.63;4873933;29;19928;-77
2021/10/04 00:07:53;;;;;;;;;;;;;;;5.19;63.28;101881.19;4872756;29;19924;-77
2021/10/04 00:10:18;;;;;;;;;;;;;;;5.17;63.75;101878.56;4872114;29;19981;-77
2021/10/04 00:12:44;;;;;;;;;;;;;;;5.16;64.17;101873.34;4856871;29;19930;-76
2021/10/04 00:15:11;;;;;;;;;;;;;;;5.17;63.61;101880.28;4874229;29;19987;-77
2021/10/04 00:17:37;;;;;;;;;;;;;;;5.17;63.33;101875.13;4873393;29;20032;-77
2021/10/04 00:20:07;;;;;;;;;;;;;;;5.09;63.58;101877.31;4873506;29;19933;-76
2021/10/04 00:22:33;;;;;;;;;;;;;;;5.08;63.16;101879.03;4867666;29;19965;-79
2021/10/04 00:24:58;;;;;;;;;;;;;;;5.08;63.40;101883.28;4870911;29;20061;-76
2021/10/04 00:27:24;;;;;;;;;;;;;;;5.01;63.16;101884.69;4873261;29;19955;-76
2021/10/04 00:29:49;;;;;;;;;;;;;;;4.95;63.16;101889.59;4872708;29;19930;-77
2021/10/04 00:32:15;;;;;;;;;;;;;;;4.94;63.71;101882.66;4872575;29;20388;-76
2021/10/04 00:34:40;;;;;;;;;;;;;;;4.87;63.19;101883.16;4875475;29;19927;-78
2021/10/04 00:37:06;;;;;;;;;;;;;;;4.89;63.10;101884.13;4878042;29;20018;-80
2021/10/04 00:39:32;;;;;;;;;;;;;;;4.85;63.86;101892.53;4875223;29;20380;-78
2021/10/04 00:41:59;;;;;;;;;;;;;;;4.87;63.70;101883.16;4872275;29;19927;-76
2021/10/04 00:44:24;;;;;;;;;;;;;;;4.86;63.53;101886.56;4873133;29;19924;-76
2021/10/04 00:46:50;;;;;;;;;;;;;;;4.89;63.79;101891.88;4871419;29;20230;-76
2021/10/04 00:49:16;;;;;;;;;;;;;;;4.95;63.24;101894.75;4873055;29;19931;-76
2021/10/04 00:51:42;;;;;;;;;;;;;;;4.95;63.15;101893.03;4871754;29;19928;-77
2021/10/04 00:54:07;;;;;;;;;;;;;;;4.98;63.89;101895.78;4871964;29;19934;-78
2021/10/04 00:56:33;;;;;;;;;;;;;;;5.03;63.28;101890.81;4878542;29;19979;-76
2021/10/04 00:58:59;;;;;;;;;;;;;;;5.05;63.12;101894.34;4881282;29;20467;-76
2021/10/04 01:01:28;;;;;;;;;;;;;;;5.08;63.74;101894.50;4886477;29;19924;-77
2021/10/04 01:03:59;;;;;;;;;;;;;;;5.10;63.11;101895.47;4845523;29;19979;-77
2021/10/04 01:06:25;;;;;;;;;;;;;;;5.12;62.69;101893.84;4877842;29;20014;-77
2021/10/04 01:08:51;;;;;;;;;;;;;;;5.12;63.54;101898.09;4871830;29;19946;-75
2021/10/04 01:11:17;;;;;;;;;;;;;;;5.17;63.25;101891.47;4876947;29;20388;-76
2021/10/04 01:13:42;;;;;;;;;;;;;;;5.21;63.14;101895.06;4876631;29;19979;-78
2021/10/04 01:16:08;;;;;;;;;;;;;;;5.25;63.64;101902.16;4874459;29;20344;-77
2021/10/04 01:18:34;;;;;;;;;;;;;;;5.28;62.49;101895.47;4876075;29;19927;-75
2021/10/04 01:21:00;;;;;;;;;;;;;;;5.31;62.74;101892.13;4875952;29;19923;-77
2021/10/04 01:23:28;;;;;;;;;;;;;;;5.31;63.12;101897.28;4874890;29;20414;-77
2021/10/04 01:25:55;;;;;;;;;;;;;;;5.35;63.64;101891.44;4875555;29;19930;-77
2021/10/04 01:28:21;;;;;;;;;;;;;;;5.37;63.38;101897.56;4860159;29;20309;-78
2021/10/04 01:30:46;;;;;;;;;;;;;;;5.30;62.79;101899.81;4870385;29;19923;-77
2021/10/04 01:33:12;;;;;;;;;;;;;;;5.29;63.06;101893.75;4880544;29;19983;-77
2021/10/04 01:35:37;;;;;;;;;;;;;;;5.36;63.06;101892.31;4878382;29;20778;-76
2021/10/04 01:38:03;;;;;;;;;;;;;;;5.45;63.67;101891.84;4877724;29;20431;-79
2021/10/04 01:40:28;;;;;;;;;;;;;;;5.50;63.54;101893.84;4875261;29;19928;-77
2021/10/04 01:42:54;;;;;;;;;;;;;;;5.55;63.61;101892.34;4876589;29;19924;-76
2021/10/04 01:45:22;;;;;;;;;;;;;;;5.58;63.12;101894.19;4875264;29;19931;-76
2021/10/04 01:47:49;;;;;;;;;;;;;;;5.60;63.46;101890.00;4857185;29;20373;-76
2021/10/04 01:50:15;;;;;;;;;;;;;;;5.57;62.50;101900.19;4859342;29;20014;-77
2021/10/04 01:52:41;;;;;;;;;;;;;;;5.53;63.40;101899.13;4858263;29;19940;-75
2021/10/04 01:55:07;;;;;;;;;;;;;;;5.52;63.21;101901.66;4875440;29;19923;-77
2021/10/04 01:57:33;;;;;;;;;;;;;;;5.46;63.30;101897.09;4859047;29;20272;-77
2021/10/04 02:00:02;;;;;;;;;;;;;;;5.39;63.12;101901.13;4875087;29;20861;-75
2021/10/04 02:02:37;;;;;;;;;;;;;;;5.36;62.75;101900.97;4876149;29;19967;-76
2021/10/04 02:05:04;;;;;;;;;;;;;;;5.29;62.96;101898.91;4870292;29;19924;-78
2021/10/04 02:07:30;;;;;;;;;;;;;;;5.25;62.71;101907.31;4875307;29;20022;-76
2021/10/04 02:09:57;;;;;;;;;;;;;;;5.20;63.21;101913.94;4875688;29;20002;-76
2021/10/04 02:12:22;;;;;;;;;;;;;;;5.16;62.96;101915.50;4875447;29;20409;-77
2021/10/04 02:14:48;;;;;;;;;;;;;;;5.11;63.21;101912.72;4874461;29;20018;-76
2021/10/04 02:17:13;;;;;;;;;;;;;;;5.11;63.25;101919.56;4875757;29;20068;-78
2021/10/04 02:19:39;;;;;;;;;;;;;;;5.06;62.55;101918.50;4860145;29;20022;-75
2021/10/04 02:22:05;;;;;;;;;;;;;;;5.04;62.66;101922.69;4874115;29;19924;-78
2021/10/04 02:24:30;;;;;;;;;;;;;;;5.00;62.98;101924.22;4874864;29;19935;-78
2021/10/04 02:26:56;;;;;;;;;;;;;;;4.96;63.38;101927.50;4873951;29;19935;-77
2021/10/04 02:29:22;;;;;;;;;;;;;;;4.91;62.92;101926.38;4873678;29;19934;-76
2021/10/04 02:31:48;;;;;;;;;;;;;;;4.89;63.56;101928.00;4875334;29;20321;-78
2021/10/04 02:34:14;;;;;;;;;;;;;;;4.81;63.18;101920.75;4874820;29;19923;-76
2021/10/04 02:36:39;;;;;;;;;;;;;;;4.77;63.14;101924.00;4873511;29;19923;-76
2021/10/04 02:39:05;;;;;;;;;;;;;;;4.74;62.98;101928.13;4858986;29;20459;-77
2021/10/04 02:41:31;;;;;;;;;;;;;;;4.70;63.19;101927.09;4874952;29;19931;-78
2021/10/04 02:43:56;;;;;;;;;;;;;;;4.67;63.93;101929.53;4877685;29;19924;-75
2021/10/04 02:46:22;;;;;;;;;;;;;;;4.60;63.84;101928.34;4877206;29;20019;-77
2021/10/04 02:48:48;;;;;;;;;;;;;;;4.59;63.13;101929.16;4873254;29;20022;-76
2021/10/04 02:51:13;;;;;;;;;;;;;;;4.57;63.28;101924.69;4874654;29;20414;-76
2021/10/04 02:53:39;;;;;;;;;;;;;;;4.55;63.56;101928.91;4874090;29;19924;-78
2021/10/04 02:56:05;;;;;;;;;;;;;;;4.51;63.73;101922.72;4858480;29;19924;-76
2021/10/04 02:58:32;;;;;;;;;;;;;;;4.47;63.40;101924.25;4871261;29;21522;-77
2021/10/04 03:00:57;;;;;;;;;;;;;;;4.36;63.70;101910.84;4872676;29;19932;-75
2021/10/04 03:03:23;;;;;;;;;;;;;;;4.41;63.58;101923.94;4869990;29;19924;-75
2021/10/04 03:05:48;;;;;;;;;;;;;;;4.39;63.65;101927.28;4873641;29;20010;-76
2021/10/04 03:08:14;;;;;;;;;;;;;;;4.34;63.65;101927.00;4873856;29;19971;-76
2021/10/04 03:10:40;;;;;;;;;;;;;;;4.28;63.48;101922.44;4872342;29;19924;-77
2021/10/04 03:13:05;;;;;;;;;;;;;;;4.27;63.57;101930.97;4868987;29;20471;-76
2021/10/04 03:15:31;;;;;;;;;;;;;;;4.20;64.14;101924.63;4872184;29;19935;-75
2021/10/04 03:17:57;;;;;;;;;;;;;;;4.15;63.67;101928.66;4873773;29;20368;-76
2021/10/04 03:20:23;;;;;;;;;;;;;;;4.11;63.82;101929.28;4856311;29;20026;-77
2021/10/04 03:22:50;;;;;;;;;;;;;;;4.11;63.74;101928.44;4874358;29;19930;-77
2021/10/04 03:25:16;;;;;;;;;;;;;;;4.10;63.63;101932.69;4870102;29;19954;-75
2021/10/04 03:27:43;;;;;;;;;;;;;;;4.10;63.75;101937.84;4857408;29;19927;-77
2021/10/04 03:30:09;;;;;;;;;;;;;;;4.09;63.59;101932.63;4875277;29;19924;-77
2021/10/04 03:32:36;;;;;;;;;;;;;;;4.06;64.02;101934.22;4878216;29;19923;-77
2021/10/04 03:35:02;;;;;;;;;;;;;;;4.05;64.09;101939.31;4860785;29;21098;-76
2021/10/04 03:37:28;;;;;;;;;;;;;;;4.04;64.42;101940.13;4874861;29;19928;-76
2021/10/04 03:39:53;;;;;;;;;;;;;;;3.98;64.20;101934.63;4877350;29;19928;-78
2021/10/04 03:42:19;;;;;;;;;;;;;;;3.94;63.97;101930.13;4889712;29;20112;-76
2021/10/04 03:44:44;;;;;;;;;;;;;;;3.84;63.64;101944.22;4877216;29;19934;-76
2021/10/04 03:47:10;;;;;;;;;;;;;;;3.82;63.90;101935.50;4874500;29;19924;-79
2021/10/04 03:49:35;;;;;;;;;;;;;;;3.83;64.20;101940.75;4875418;29;20365;-76
2021/10/04 03:52:01;;;;;;;;;;;;;;;3.82;63.83;101946.72;4872095;29;21140;-76
2021/10/04 03:54:27;;;;;;;;;;;;;;;3.87;64.94;101944.38;4872397;29;19923;-76
2021/10/04 03:56:53;;;;;;;;;;;;;;;3.88;63.85;101947.00;4872758;29;19924;-75
2021/10/04 03:59:18;;;;;;;;;;;;;;;3.91;63.82;101948.88;4872444;29;20000;-77
2021/10/04 04:01:44;;;;;;;;;;;;;;;3.90;64.17;101948.00;4838500;29;19931;-76
2021/10/04 04:04:09;;;;;;;;;;;;;;;3.94;64.31;101945.56;4856924;29;19924;-77
2021/10/04 04:06:35;;;;;;;;;;;;;;;3.96;63.49;101949.13;4841651;29;19927;-76
2021/10/04 04:09:00;;;;;;;;;;;;;;;4.04;64.30;101945.28;4856537;29;20022;-77
2021/10/04 04:11:26;;;;;;;;;;;;;;;4.10;64.00;101943.00;4856854;29;20027;-78
2021/10/04 04:13:52;;;;;;;;;;;;;;;4.22;64.11;101951.38;4872645;29;19931;-76
2021/10/04 04:16:17;;;;;;;;;;;;;;;4.39;63.53;101945.31;4873342;29;19936;-75
2021/10/04 04:18:43;;;;;;;;;;;;;;;4.57;64.28;101951.41;4871602;29;19971;-79
2021/10/04 04:21:09;;;;;;;;;;;;;;;4.83;63.75;101946.66;4873445;29;19923;-77
2021/10/04 04:23:35;;;;;;;;;;;;;;;5.15;63.51;101946.44;4873581;29;20407;-76
2021/10/04 04:26:00;;;;;;;;;;;;;;;5.69;63.24;101952.38;4871656;29;19952;-76
2021/10/04 04:28:26;;;;;;;;;;;;;;;6.66;63.13;101946.22;4879458;29;19928;-76
2021/10/04 04:30:51;;;;;;;;;;;;;;;7.64;61.76;101949.22;4888342;29;19936;-77
2021/10/04 04:33:17;;;;;;;;;;;;;;;8.48;60.86;101938.31;4878030;29;19994;-75
2021/10/04 04:35:43;;;;;;;;;;;;;;;9.32;59.95;101952.28;4876793;29;20399;-76
2021/10/04 04:38:08;;;;;;;;;;;;;;;10.10;58.70;101938.06;4844960;29;20452;-77
2021/10/04 04:40:34;;;;;;;;;;;;;;;10.92;58.01;101930.59;4877855;29;19923;-76
2021/10/04 04:43:05;;;;;;;;;;;;;;;11.69;56.52;101940.13;4846810;29;19947;-78
2021/10/04 04:48:39;;;;;;;;;;;;;;;13.39;54.51;101923.84;4861328;29;19928;-78
2021/10/04 04:51:05;;;;;;;;;;;;;;;14.14;53.32;101929.97;4879543;29;19923;-77
2021/10/04 04:53:30;;;;;;;;;;;;;;;14.83;51.96;101927.09;4879379;29;20367;-77
2021/10/04 04:55:59;;;;;;;;;;;;;;;15.52;51.25;101923.16;4878129;29;19923;-76
2021/10/04 04:58:25;;;;;;;;;;;;;;;16.23;50.14;101922.50;4880120;29;19927;-76
2021/10/04 05:00:53;;;;;;;;;;;;;;;16.86;49.07;101921.59;4867504;29;19948;-77
2021/10/04 05:03:19;;;;;;;;;;;;;;;17.50;47.95;101922.34;4888547;29;19928;-77
2021/10/04 05:05:50;;;;;;;;;;;;;;;18.02;47.04;101921.22;4869461;29;19966;-77
2021/10/04 05:08:19;;;;;;;;;;;;;;;18.69;46.54;101906.66;4863259;29;19951;-79
2021/10/04 05:10:44;;;;;;;;;;;;;;;19.33;45.43;101905.16;4854111;29;19982;-75
2021/10/04 05:13:10;;;;;;;;;;;;;;;19.95;44.78;101912.28;4873810;29;19958;-77
2021/10/04 05:15:39;;;;;;;;;;;;;;;20.59;43.73;101906.00;4874450;29;19935;-77
2021/10/04 05:18:05;;;;;;;;;;;;;;;21.14;42.68;101904.13;4851168;29;19995;-77
2021/10/04 05:20:30;;;;;;;;;;;;;;;21.70;41.88;101910.06;4860462;29;19932;-76
2021/10/04 05:22:56;;;;;;;;;;;;;;;22.24;41.46;101914.97;4874967;29;19928;-77
2021/10/04 05:25:26;;;;;;;;;;;;;;;22.73;40.47;101901.41;4844877;29;19930;-79
2021/10/04 05:27:51;;;;;;;;;;;;;;;23.21;39.21;101897.44;4874932;29;19928;-76
2021/10/04 05:30:17;;;;;;;;;;;;;;;23.68;38.87;101906.72;4859309;29;19931;-76
2021/10/04 05:32:43;;;;;;;;;;;;;;;24.20;38.09;101905.09;4876318;29;19924;-76
2021/10/04 05:35:11;;;;;;;;;;;;;;;24.21;37.66;101909.50;4860321;29;20046;-76
2021/10/04 05:37:36;;;;;;;;;;;;;;;24.38;37.21;101913.38;4876832;29;19932;-79
2021/10/04 05:40:02;;;;;;;;;;;;;;;24.67;36.76;101904.38;4876360;29;20376;-76
2021/10/04 05:42:32;;;;;;;;;;;;;;;25.08;36.12;101916.28;4881140;29;20022;-78
2021/10/04 05:45:01;;;;;;;;;;;;;;;25.60;35.35;101909.97;4896158;29;19952;-77
2021/10/04 05:47:28;;;;;;;;;;;;;;;26.21;34.06;101916.44;4888458;29;19975;-77
2021/10/04 05:49:53;;;;;;;;;;;;;;;26.35;34.25;101918.53;4880019;29;20337;-76
2021/10/04 05:52:25;;;;;;;;;;;;;;;26.85;32.31;101912.84;4877572;29;20305;-77
2021/10/04 05:54:51;;;;;;;;;;;;;;;26.99;32.36;101912.25;4859156;29;19927;-76
2021/10/04 05:57:17;;;;;;;;;;;;;;;27.54;32.03;101918.66;4876595;29;19983;-77
2021/10/04 05:59:42;;;;;;;;;;;;;;;27.66;31.42;101907.41;4860671;29;19927;-76
2021/10/04 06:02:08;;;;;;;;;;;;;;;28.00;30.27;101899.53;4845595;29;19947;-76
2021/10/04 06:04:34;;;;;;;;;;;;;;;27.86;30.38;101910.03;4873478;29;19934;-73
2021/10/04 06:06:59;;;;;;;;;;;;;;;28.02;28.91;101910.16;4888827;29;20020;-75
2021/10/04 06:09:25;;;;;;;;;;;;;;;28.81;29.48;101908.88;4877922;29;19959;-77
2021/10/04 06:11:53;;;;;;;;;;;;;;;29.71;28.33;101906.72;4875314;29;20380;-76
2021/10/04 06:14:21;;;;;;;;;;;;;;;30.65;27.14;101901.22;4875741;29;19955;-76
2021/10/04 06:16:49;;;;;;;;;;;;;;;31.18;26.29;101889.97;4874150;29;19936;-76
2021/10/04 06:19:15;;;;;;;;;;;;;;;31.21;26.52;101895.16;4876684;29;19927;-77
2021/10/04 06:21:41;;;;;;;;;;;;;;;31.27;26.31;101898.38;4873926;29;19930;-78
2021/10/04 06:24:09;;;;;;;;;;;;;;;31.59;26.43;101900.81;4876942;29;20443;-77
2021/10/04 06:26:37;;;;;;;;;;;;;;;32.06;25.89;101899.53;4890080;29;19999;-77
2021/10/04 06:29:03;;;;;;;;;;;;;;;31.13;24.10;101905.47;4877071;29;19984;-77
2021/10/04 06:31:29;;;;;;;;;;;;;;;30.52;26.20;101910.97;4861153;29;19931;-78
2021/10/04 06:33:54;;;;;;;;;;;;;;;30.65;26.18;101916.50;4875852;29;19995;-77
2021/10/04 06:36:20;;;;;;;;;;;;;;;30.93;23.01;101883.41;4875056;29;19958;-79
2021/10/04 06:38:45;;;;;;;;;;;;;;;31.52;24.27;101911.97;4874926;29;19928;-78
2021/10/04 06:41:13;;;;;;;;;;;;;;;32.13;24.31;101910.75;4876596;29;19930;-78
2021/10/04 06:43:39;;;;;;;;;;;;;;;33.05;23.25;101908.91;4871333;29;19973;-77
2021/10/04 06:46:07;;;;;;;;;;;;;;;33.68;22.67;101907.16;4858049;29;19971;-78
2021/10/04 06:48:36;;;;;;;;;;;;;;;33.51;22.28;101905.72;4874871;29;20022;-78
2021/10/04 06:51:02;;;;;;;;;;;;;;;32.95;22.23;101905.16;4875868;29;19924;-78
2021/10/04 06:53:27;;;;;;;;;;;;;;;32.96;22.91;101911.41;4872212;29;20007;-77
2021/10/04 06:55:53;;;;;;;;;;;;;;;33.63;22.38;101911.06;4874095;29;19934;-78
2021/10/04 06:58:18;;;;;;;;;;;;;;;33.95;21.72;101912.34;4875684;29;19963;-78
2021/10/04 07:00:44;;;;;;;;;;;;;;;34.37;21.62;101914.56;4876303;29;19949;-79
2021/10/04 07:03:10;;;;;;;;;;;;;;;34.79;20.28;101911.38;4876983;29;19923;-77
2021/10/04 07:05:36;;;;;;;;;;;;;;;33.62;20.22;101913.88;4875814;29;20392;-81
2021/10/04 07:08:12;;;;;;;;;;;;;;;32.96;21.10;101908.72;4874817;29;19971;-77
2021/10/04 07:10:40;;;;;;;;;;;;;;;33.31;20.75;101908.00;4876014;29;20396;-77
2021/10/04 07:13:05;;;;;;;;;;;;;;;33.58;20.93;101909.66;4874738;29;19923;-77
2021/10/04 07:15:34;;;;;;;;;;;;;;;34.16;20.15;101909.84;4873391;29;19928;-79
2021/10/04 07:18:07;;;;;;;;;;;;;;;34.99;19.78;101907.09;4859187;29;20353;-79
2021/10/04 07:20:32;;;;;;;;;;;;;;;36.17;19.05;101909.19;4875124;29;20295;-78
2021/10/04 07:22:59;;;;;;;;;;;;;;;36.82;19.00;101913.56;4874563;29;19932;-77
2021/10/04 07:25:28;;;;;;;;;;;;;;;37.47;17.92;101905.13;4874542;29;19928;-77
2021/10/04 07:27:54;;;;;;;;;;;;;;;37.30;17.70;101911.19;4873952;29;20420;-78
2021/10/04 07:30:20;;;;;;;;;;;;;;;36.54;17.49;101909.72;4861439;29;19924;-78
2021/10/04 07:32:46;;;;;;;;;;;;;;;36.42;18.30;101911.63;4886286;29;19947;-77
2021/10/04 07:35:18;;;;;;;;;;;;;;;36.90;17.78;101915.59;4895969;29;20929;-79
2021/10/04 07:37:43;;;;;;;;;;;;;;;37.86;17.04;101914.28;4892303;29;19939;-76
2021/10/04 07:40:13;;;;;;;;;;;;;;;38.40;16.92;101921.03;4884380;29;19924;-78
2021/10/04 07:42:48;;;;;;;;;;;;;;;38.75;16.27;101921.34;4877104;29;19967;-77
2021/10/04 07:45:20;;;;;;;;;;;;;;;38.87;16.26;101925.63;4861819;29;19931;-80
2021/10/04 07:47:46;;;;;;;;;;;;;;;37.96;16.27;101923.34;4880635;29;20046;-76
2021/10/04 07:50:14;;;;;;;;;;;;;;;38.01;16.34;101914.75;4896098;29;20324;-77
2021/10/04 07:52:46;;;;;;;;;;;;;;;38.33;16.21;101919.84;4880637;29;19927;-77
2021/10/04 07:55:15;;;;;;;;;;;;;;;37.31;16.23;101907.50;4859440;29;19979;-78
2021/10/04 07:57:44;;;;;;;;;;;;;;;37.04;17.04;101912.56;4843858;29;19931;-79
2021/10/04 08:00:11;;;;;;;;;;;;;;;37.89;15.98;101914.88;4873829;29;20393;-77
2021/10/04 08:02:42;;;;;;;;;;;;;;;38.47;15.90;101915.00;4843897;29;19924;-79
2021/10/04 08:05:09;;;;;;;;;;;;;;;38.54;14.24;101908.84;4883889;29;20438;-77
2021/10/04 08:07:35;;;;;;;;;;;;;;;38.39;15.21;101904.88;4858401;29;21325;-76
2021/10/04 08:10:00;;;;;;;;;;;;;;;37.93;14.93;101905.47;4869013;29;19931;-79
2021/10/04 08:12:27;;;;;;;;;;;;;;;36.79;16.67;101916.53;4857224;29;20392;-78
2021/10/04 08:14:56;;;;;;;;;;;;;;;36.78;16.19;101910.28;4874661;29;19924;-76
2021/10/04 08:17:24;;;;;;;;;;;;;;;37.13;15.88;101910.88;4874677;29;19934;-77
2021/10/04 08:19:49;;;;;;;;;;;;;;;36.01;15.85;101909.63;4872735;29;20046;-79
2021/10/04 08:22:18;;;;;;;;;;;;;;;35.14;15.65;101907.69;4857459;29;20007;-75
2021/10/04 08:24:53;;;;;;;;;;;;;;;36.13;15.50;101898.72;4874185;29;19955;-77
2021/10/04 08:27:19;;;;;;;;;;;;;;;37.55;15.39;101906.28;4874513;29;20412;-77
2021/10/04 08:29:46;;;;;;;;;;;;;;;38.12;14.76;101901.88;4857201;29;19930;-77
2021/10/04 08:32:12;;;;;;;;;;;;;;;38.13;14.32;101895.44;4873668;29;19996;-77
2021/10/04 08:34:38;;;;;;;;;;;;;;;37.49;13.74;101899.56;4872905;29;20043;-78
2021/10/04 08:37:03;;;;;;;;;;;;;;;36.68;15.54;101903.09;4873628;29;19928;-79
2021/10/04 08:39:32;;;;;;;;;;;;;;;36.73;15.26;101898.13;4876277;29;19928;-81
2021/10/04 08:41:57;;;;;;;;;;;;;;;37.17;14.17;101900.59;4875078;29;20414;-79
2021/10/04 08:44:24;;;;;;;;;;;;;;;35.92;15.01;101904.94;4870853;29;19924;-78
2021/10/04 08:46:49;;;;;;;;;;;;;;;35.37;15.36;101905.84;4858391;29;19963;-79
2021/10/04 08:49:19;;;;;;;;;;;;;;;35.34;15.40;101891.69;4859345;29;19928;-80
2021/10/04 08:51:49;;;;;;;;;;;;;;;35.74;14.51;101912.78;4858728;29;19924;-78
2021/10/04 08:54:21;;;;;;;;;;;;;;;35.35;15.44;101902.41;4872812;29;20002;-80
2021/10/04 08:56:47;;;;;;;;;;;;;;;35.26;15.62;101904.00;4860380;29;19934;-78
2021/10/04 08:59:16;;;;;;;;;;;;;;;35.50;14.03;101910.25;4862933;29;20023;-77
2021/10/04 09:01:41;;;;;;;;;;;;;;;35.48;15.40;101904.97;4865884;29;19931;-79
2021/10/04 09:04:07;;;;;;;;;;;;;;;36.30;14.84;101908.97;4879007;29;19928;-74
2021/10/04 09:06:32;;;;;;;;;;;;;;;35.69;14.31;101904.19;4859742;29;20404;-79
2021/10/04 09:09:00;;;;;;;;;;;;;;;36.16;14.65;101904.75;4897095;29;19924;-75
2021/10/04 09:11:28;;;;;;;;;;;;;;;37.13;13.61;101910.00;4877051;29;19923;-72
2021/10/04 09:13:54;;;;;;;;;;;;;;;37.23;13.94;101911.75;4876330;29;19935;-75
2021/10/04 09:16:19;;;;;;;;;;;;;;;37.63;13.88;101893.72;4899187;29;19927;-76
2021/10/04 09:18:45;;;;;;;;;;;;;;;38.36;14.16;101903.25;4887462;29;20002;-76
2021/10/04 09:21:11;;;;;;;;;;;;;;;37.53;13.54;101899.13;4870546;29;19923;-76
2021/10/04 09:24:02;;;;;;;;;;;;;;;36.93;14.27;101902.63;4881078;29;20034;-73
2021/10/04 09:26:29;;;;;;;;;;;;;;;36.69;13.16;101904.81;4901621;29;19912;-74
2021/10/04 09:29:02;;;;;;;;;;;;;;;34.59;14.98;101910.22;4895256;29;19953;-75
2021/10/04 09:31:29;;;;;;;;;;;;;;;35.31;15.01;101892.81;4881581;29;20010;-79
2021/10/04 09:34:00;;;;;;;;;;;;;;;36.22;14.85;101894.34;4876237;29;19936;-76
2021/10/04 09:36:27;;;;;;;;;;;;;;;35.78;14.47;101897.13;4895300;29;19928;-77
2021/10/04 09:39:11;;;;;;;;;;;;;;;33.10;15.01;101910.41;4862094;29;19947;-76
2021/10/04 09:41:58;;;;;;;;;;;;;;;30.30;16.85;101914.94;4878553;29;20019;-78
2021/10/04 09:44:42;;;;;;;;;;;;;;;31.01;17.68;101908.91;4867390;29;19923;-75
2021/10/04 09:47:28;;;;;;;;;;;;;;;32.99;16.28;101906.66;4888544;29;19944;-75
2021/10/04 09:49:55;;;;;;;;;;;;;;;32.55;15.50;101894.47;4889646;29;20452;-72
2021/10/04 09:52:36;;;;;;;;;;;;;;;32.79;16.21;101885.59;4894009;29;19955;-75
2021/10/04 09:55:22;;;;;;;;;;;;;;;33.02;15.12;101890.25;4861705;29;19924;-74
2021/10/04 09:57:59;;;;;;;;;;;;;;;32.44;15.10;101885.28;4886081;29;19931;-75
2021/10/04 10:00:26;;;;;;;;;;;;;;;29.13;17.00;101899.13;4885052;29;19927;-73
2021/10/04 10:02:54;;;;;;;;;;;;;;;27.48;18.42;101902.91;4884932;29;19988;-75
2021/10/04 10:05:22;;;;;;;;;;;;;;;26.02;19.65;101911.84;4881949;29;19932;-74
2021/10/04 10:07:47;;;;;;;;;;;;;;;24.94;19.83;101907.03;4891527;29;20435;-73
2021/10/04 10:10:13;;;;;;;;;;;;;;;24.06;20.34;101917.94;4881301;29;20014;-76
2021/10/04 10:12:42;;;;;;;;;;;;;;;23.39;21.21;101911.13;4879972;29;20403;-75
2021/10/04 10:15:08;;;;;;;;;;;;;;;23.24;21.06;101907.13;4875591;29;19927;-75
2021/10/04 10:17:34;;;;;;;;;;;;;;;22.89;21.46;101919.56;4878290;29;20272;-78
2021/10/04 10:20:00;;;;;;;;;;;;;;;22.61;21.38;101917.66;4875540;29;19952;-74
2021/10/04 10:22:29;;;;;;;;;;;;;;;22.13;21.25;101914.38;4876158;29;19924;-75
2021/10/04 10:24:56;;;;;;;;;;;;;;;21.26;21.88;101915.34;4865400;29;19960;-76
2021/10/04 10:27:38;;;;;;;;;;;;;;;20.64;23.27;101927.06;4886448;29;19924;-79
2021/10/04 10:30:17;;;;;;;;;;;;;;;20.53;23.23;101930.75;4875846;29;19928;-78
2021/10/04 10:32:43;;;;;;;;;;;;;;;19.03;24.08;101930.97;4846655;29;19931;-76
2021/10/04 10:35:08;;;;;;;;;;;;;;;18.49;25.95;101931.44;4876585;29;19928;-78
2021/10/04 10:37:50;;;;;;;;;;;;;;;18.10;25.94;101936.97;4860320;29;20396;-78
2021/10/04 10:40:20;;;;;;;;;;;;;;;17.77;26.31;101941.53;4860455;29;20423;-74
2021/10/04 10:42:58;;;;;;;;;;;;;;;17.84;27.15;101939.75;4878666;29;20312;-76
2021/10/04 10:45:24;;;;;;;;;;;;;;;17.74;26.97;101946.81;4859826;29;19930;-77
2021/10/04 10:47:50;;;;;;;;;;;;;;;17.29;27.16;101939.09;4878935;29;20010;-75
2021/10/04 10:50:17;;;;;;;;;;;;;;;16.61;27.53;101944.41;4876206;29;20006;-77
2021/10/04 10:52:46;;;;;;;;;;;;;;;16.40;29.02;101940.91;4878845;29;20002;-76
2021/10/04 10:55:18;;;;;;;;;;;;;;;16.70;28.98;101936.50;4849327;29;19979;-77
2021/10/04 10:57:58;;;;;;;;;;;;;;;16.71;27.94;101946.16;4875855;29;19950;-75
2021/10/04 11:00:25;;;;;;;;;;;;;;;16.39;28.85;101945.28;4857222;29;19923;-77
2021/10/04 11:02:52;;;;;;;;;;;;;;;15.99;29.07;101950.44;4877265;29;19943;-74
2021/10/04 11:05:37;;;;;;;;;;;;;;;15.91;29.82;101946.91;4875634;29;20520;-74
2021/10/04 11:08:03;;;;;;;;;;;;;;;15.64;29.76;101953.81;4876036;29;19928;-74
2021/10/04 11:10:29;;;;;;;;;;;;;;;15.61;30.11;101953.78;4876096;29;19959;-74
2021/10/04 11:13:10;;;;;;;;;;;;;;;15.31;29.93;101951.03;4874894;29;19977;-77
2021/10/04 11:15:37;;;;;;;;;;;;;;;15.33;31.45;101948.41;4899611;29;19935;-77
2021/10/04 11:18:04;;;;;;;;;;;;;;;15.32;30.56;101952.78;4884258;29;19916;-72
2021/10/04 11:20:30;;;;;;;;;;;;;;;14.98;31.18;101962.19;4892906;29;19976;-74
2021/10/04 11:23:10;;;;;;;;;;;;;;;14.63;32.03;101971.47;4883827;29;19927;-73
2021/10/04 11:25:47;;;;;;;;;;;;;;;14.40;33.22;101964.28;4854897;29;19938;-78
2021/10/04 11:28:15;;;;;;;;;;;;;;;14.39;33.70;101966.88;4865770;29;19968;-80
2021/10/04 11:30:56;;;;;;;;;;;;;;;14.45;33.79;101961.69;4858885;29;19946;-76
2021/10/04 11:33:22;;;;;;;;;;;;;;;14.43;33.35;101963.41;4872973;29;19970;-77
2021/10/04 11:35:58;;;;;;;;;;;;;;;14.32;33.69;101960.69;4871901;29;19939;-75
2021/10/04 11:38:28;;;;;;;;;;;;;;;14.27;34.12;101968.50;4874091;29;19923;-75
2021/10/04 11:40:57;;;;;;;;;;;;;;;14.24;33.88;101965.84;4887934;29;19935;-75
2021/10/04 11:43:23;;;;;;;;;;;;;;;13.96;34.30;101970.78;4874898;29;19932;-74
2021/10/04 11:45:49;;;;;;;;;;;;;;;13.91;34.63;101961.13;4879796;29;19923;-76
2021/10/04 11:48:31;;;;;;;;;;;;;;;13.98;34.31;101961.22;4878896;29;19962;-76
2021/10/04 11:50:58;;;;;;;;;;;;;;;13.90;34.63;101956.75;4841722;29;20009;-78
2021/10/04 11:53:27;;;;;;;;;;;;;;;13.98;34.09;101968.19;4875396;29;19927;-75
2021/10/04 11:56:03;;;;;;;;;;;;;;;13.71;35.04;101964.38;4878644;29;20048;-77
2021/10/04 11:58:29;;;;;;;;;;;;;;;13.54;34.76;101962.44;4869413;29;19992;-78
2021/10/04 12:00:55;;;;;;;;;;;;;;;13.39;36.02;101963.06;4850707;29;20668;-75
2021/10/04 12:03:31;;;;;;;;;;;;;;;13.14;36.04;101961.81;4885044;29;19978;-74
2021/10/04 12:05:58;;;;;;;;;;;;;;;12.84;37.15;101972.69;4870594;29;19995;-75
2021/10/04 12:08:24;;;;;;;;;;;;;;;12.64;37.64;101968.00;4875247;29;19924;-77
2021/10/04 12:10:54;;;;;;;;;;;;;;;12.61;38.29;101970.56;4876790;29;19924;-77
2021/10/04 12:13:20;;;;;;;;;;;;;;;12.52;38.30;101967.81;4875319;29;20375;-76
2021/10/04 12:15:50;;;;;;;;;;;;;;;12.39;39.03;101980.63;4858873;29;19948;-76
2021/10/04 12:18:20;;;;;;;;;;;;;;;12.27;39.38;101978.66;4845546;29;20692;-76
2021/10/04 12:20:46;;;;;;;;;;;;;;;12.26;39.63;101981.25;4859470;29;19946;-75
2021/10/04 12:23:12;;;;;;;;;;;;;;;12.27;39.78;101972.56;4881181;29;19963;-79
2021/10/04 12:25:38;;;;;;;;;;;;;;;12.29;39.85;101976.09;4846528;29;19932;-73
2021/10/04 12:28:12;;;;;;;;;;;;;;;12.24;40.17;101985.56;4873641;29;19931;-78
2021/10/04 12:30:49;;;;;;;;;;;;;;;12.26;40.02;101974.28;4858243;29;19991;-75
2021/10/04 12:33:15;;;;;;;;;;;;;;;12.27;40.49;101965.59;4895152;29;19934;-78
2021/10/04 12:35:41;;;;;;;;;;;;;;;12.45;40.28;101972.03;4873337;29;19981;-74
2021/10/04 12:38:13;;;;;;;;;;;;;;;12.62;40.23;101973.22;4874012;29;20379;-79
2021/10/04 12:40:45;;;;;;;;;;;;;;;12.68;39.84;101968.94;4873287;29;19923;-77
2021/10/04 12:43:16;;;;;;;;;;;;;;;12.71;39.57;101967.25;4875827;29;19931;-80
2021/10/04 12:45:51;;;;;;;;;;;;;;;12.55;39.02;101971.34;4875548;29;19924;-77